Terminal Aerodrome Forecast
Issued by NWS Jackson, MS

Home | Current Version | Previous Version | Text Only | Print | Product List | Glossary On
Versions: 1 2 3 4 5 6 7 8 9 10 11 12 13
000
FTUS44 KMEG 262331
TAFTUP
TAF
KTUP 262331Z 2700/2724 14009KT P6SM FEW060
     FM271000 16002KT P6SM VCTS OVC050CB
      TEMPO 2711/2714 4SM BR OVC015
     FM271800 18005KT P6SM -TSRA OVC050CB
      TEMPO 2720/2724 4SM -TSRA OVC025CB=

USA.gov is the U.S. government's official web portal to all federal, state and local government web resources and services.